TAF Text Data
IDs:
Format:
Raw Decoded Include METAR

Data at: 2230 UTC 25 Apr 2019

KRST 251729Z 2518/2618 31010KT P6SM OVC060
  FM251900 31010KT P6SM SCT200
  FM260500 32011KT P6SM SKC WS020/34040KT
  FM260800 32012KT P6SM SKC
  FM261400 32014G25KT P6SM SKC